LRI582 RPVP-RPVS
Flight info
| Callsign | LRI582 |
|---|---|
| Flight time | 1h 0m |
| Altitude | 27000 |
| Route | SAIR1E ZENNY W17 OCORO |
| Aircraft | BE9L/L-SDFG/C |
Departure
| Time | 2026-04-15 12:38 |
|---|---|
| Airport | Puerto Princesa International Airport / PAF Antonio Bautista Air Base (RPVP) |
Arrival
| Time | 2026-04-15 13:38 |
|---|---|
| Airport | Evelio Javier Airport (RPVS) |
| Time | Latitude | Longitude | Altitude | Speed | Heading |
|---|---|---|---|---|---|
| 2026-04-15 12:16 | 9.74057 | 118.75829 | 56 ft | 0 kts | 181° |
| 2026-04-15 12:35 | 9.74082 | 118.75801 | 56 ft | 11 kts | 306° |
| 2026-04-15 12:35 | 9.74107 | 118.75699 | 55 ft | 15 kts | 288° |
| 2026-04-15 12:35 | 9.74140 | 118.75601 | 55 ft | 15 kts | 296° |
| 2026-04-15 12:35 | 9.74209 | 118.75530 | 57 ft | 16 kts | 308° |
| 2026-04-15 12:36 | 9.74231 | 118.75406 | 59 ft | 23 kts | 275° |
| 2026-04-15 12:36 | 9.74240 | 118.75214 | 62 ft | 31 kts | 270° |
| 2026-04-15 12:36 | 9.74250 | 118.74989 | 66 ft | 29 kts | 274° |
| 2026-04-15 12:36 | 9.74252 | 118.74902 | 67 ft | 5 kts | 113° |
| 2026-04-15 12:37 | 9.74255 | 118.74923 | 67 ft | 0 kts | 91° |
| 2026-04-15 12:37 | 9.74252 | 118.74998 | 66 ft | 45 kts | 92° |
| 2026-04-15 12:37 | 9.74225 | 118.75586 | 58 ft | 113 kts | 94° |
| 2026-04-15 12:38 | 9.74136 | 118.76427 | 345 ft | 123 kts | 98° |
| 2026-04-15 12:38 | 9.73997 | 118.77234 | 1000 ft | 116 kts | 98° |
| 2026-04-15 12:38 | 9.73951 | 118.78043 | 1547 ft | 117 kts | 89° |
| 2026-04-15 12:38 | 9.73919 | 118.78853 | 2105 ft | 118 kts | 89° |
| 2026-04-15 12:39 | 9.73891 | 118.79673 | 2631 ft | 119 kts | 90° |
| 2026-04-15 12:39 | 9.73858 | 118.80505 | 3169 ft | 120 kts | 89° |
| 2026-04-15 12:39 | 9.73828 | 118.81335 | 3694 ft | 120 kts | 89° |
| 2026-04-15 12:39 | 9.73796 | 118.82182 | 4212 ft | 121 kts | 90° |
| 2026-04-15 12:40 | 9.73765 | 118.83030 | 4713 ft | 122 kts | 89° |
| 2026-04-15 12:40 | 9.73733 | 118.83886 | 5196 ft | 123 kts | 90° |
| 2026-04-15 12:40 | 9.73698 | 118.84741 | 5677 ft | 124 kts | 89° |
| 2026-04-15 12:40 | 9.73666 | 118.85615 | 6148 ft | 126 kts | 89° |
| 2026-04-15 12:41 | 9.73632 | 118.86497 | 6609 ft | 127 kts | 88° |
| 2026-04-15 12:41 | 9.73598 | 118.87379 | 7051 ft | 128 kts | 88° |
| 2026-04-15 12:41 | 9.73564 | 118.88274 | 7514 ft | 128 kts | 88° |
| 2026-04-15 12:41 | 9.73531 | 118.89159 | 7945 ft | 128 kts | 89° |
| 2026-04-15 12:42 | 9.73498 | 118.90066 | 8353 ft | 129 kts | 89° |
| 2026-04-15 12:42 | 9.73462 | 118.90971 | 8760 ft | 130 kts | 89° |
| 2026-04-15 12:42 | 9.73427 | 118.91876 | 9157 ft | 130 kts | 89° |
| 2026-04-15 12:42 | 9.73394 | 118.92792 | 9532 ft | 132 kts | 89° |
| 2026-04-15 12:43 | 9.73359 | 118.93720 | 9910 ft | 133 kts | 89° |
| 2026-04-15 12:43 | 9.73323 | 118.94647 | 10310 ft | 132 kts | 89° |
| 2026-04-15 12:43 | 9.73287 | 118.95582 | 10678 ft | 134 kts | 89° |
| 2026-04-15 12:43 | 9.73250 | 118.96523 | 11047 ft | 134 kts | 90° |
| 2026-04-15 12:44 | 9.73215 | 118.97465 | 11385 ft | 135 kts | 89° |
| 2026-04-15 12:44 | 9.73178 | 118.98411 | 11737 ft | 135 kts | 90° |
| 2026-04-15 12:44 | 9.73141 | 118.99365 | 12087 ft | 136 kts | 89° |
| 2026-04-15 12:44 | 9.73106 | 119.00320 | 12404 ft | 138 kts | 90° |
| 2026-04-15 12:45 | 9.73068 | 119.01287 | 12725 ft | 138 kts | 90° |
| 2026-04-15 12:45 | 9.73031 | 119.02277 | 12991 ft | 144 kts | 90° |
| 2026-04-15 12:45 | 9.72992 | 119.03354 | 13032 ft | 163 kts | 90° |
| 2026-04-15 12:45 | 9.72944 | 119.04568 | 13036 ft | 181 kts | 91° |
| 2026-04-15 12:46 | 9.72892 | 119.05903 | 13031 ft | 196 kts | 91° |
| 2026-04-15 12:46 | 9.72863 | 119.07325 | 13022 ft | 206 kts | 87° |
| 2026-04-15 12:46 | 9.72915 | 119.08791 | 13016 ft | 213 kts | 87° |
| 2026-04-15 12:46 | 9.72958 | 119.10324 | 13006 ft | 219 kts | 87° |
| 2026-04-15 12:47 | 9.73004 | 119.11884 | 13002 ft | 223 kts | 87° |
| 2026-04-15 12:47 | 9.73050 | 119.13474 | 13001 ft | 227 kts | 87° |
| 2026-04-15 12:47 | 9.73097 | 119.15070 | 13003 ft | 231 kts | 87° |
| 2026-04-15 12:47 | 9.73146 | 119.16703 | 12996 ft | 233 kts | 87° |
| 2026-04-15 12:48 | 9.73194 | 119.18354 | 12996 ft | 236 kts | 87° |
| 2026-04-15 12:48 | 9.73242 | 119.20018 | 12999 ft | 237 kts | 87° |
| 2026-04-15 12:48 | 9.73291 | 119.21703 | 12992 ft | 238 kts | 87° |
| 2026-04-15 12:48 | 9.73340 | 119.23377 | 12988 ft | 239 kts | 87° |
| 2026-04-15 12:49 | 9.73389 | 119.25065 | 12986 ft | 239 kts | 87° |
| 2026-04-15 12:49 | 9.73436 | 119.26739 | 12979 ft | 240 kts | 87° |
| 2026-04-15 12:49 | 9.73486 | 119.28436 | 12983 ft | 240 kts | 87° |
| 2026-04-15 12:49 | 9.73533 | 119.30122 | 12984 ft | 240 kts | 87° |
| 2026-04-15 12:50 | 9.73581 | 119.31813 | 12983 ft | 239 kts | 87° |
| 2026-04-15 12:50 | 9.73630 | 119.33487 | 12979 ft | 240 kts | 87° |
| 2026-04-15 12:50 | 9.73678 | 119.35196 | 12978 ft | 240 kts | 87° |
| 2026-04-15 12:50 | 9.73727 | 119.36867 | 12982 ft | 240 kts | 87° |
| 2026-04-15 12:51 | 9.73774 | 119.38569 | 12981 ft | 240 kts | 87° |
| 2026-04-15 12:51 | 9.73823 | 119.40253 | 12980 ft | 240 kts | 87° |
| 2026-04-15 12:51 | 9.73869 | 119.41947 | 12983 ft | 240 kts | 87° |
| 2026-04-15 12:51 | 9.73931 | 119.43631 | 12976 ft | 240 kts | 83° |
| 2026-04-15 12:52 | 9.74551 | 119.45175 | 12980 ft | 238 kts | 56° |
| 2026-04-15 12:52 | 9.75397 | 119.46615 | 12986 ft | 238 kts | 62° |
| 2026-04-15 12:52 | 9.76196 | 119.48089 | 12980 ft | 239 kts | 62° |
| 2026-04-15 12:52 | 9.76985 | 119.49596 | 12986 ft | 239 kts | 62° |
| 2026-04-15 12:53 | 9.77753 | 119.51084 | 12985 ft | 238 kts | 63° |
| 2026-04-15 12:53 | 9.78510 | 119.52566 | 12986 ft | 238 kts | 63° |
| 2026-04-15 12:53 | 9.79276 | 119.54073 | 12989 ft | 238 kts | 63° |
| 2026-04-15 12:53 | 9.80029 | 119.55559 | 12989 ft | 239 kts | 63° |
| 2026-04-15 12:54 | 9.80792 | 119.57066 | 12989 ft | 239 kts | 63° |
| 2026-04-15 12:54 | 9.81548 | 119.58559 | 12988 ft | 239 kts | 63° |
| 2026-04-15 12:54 | 9.82312 | 119.60068 | 12991 ft | 239 kts | 63° |
| 2026-04-15 12:54 | 9.83076 | 119.61578 | 12991 ft | 239 kts | 63° |
| 2026-04-15 12:55 | 9.83828 | 119.63068 | 12993 ft | 239 kts | 63° |
| 2026-04-15 12:55 | 9.84588 | 119.64570 | 12990 ft | 239 kts | 63° |
| 2026-04-15 12:55 | 9.85352 | 119.66081 | 12995 ft | 239 kts | 63° |
| 2026-04-15 12:55 | 9.86112 | 119.67584 | 12994 ft | 239 kts | 63° |
| 2026-04-15 12:56 | 9.86867 | 119.69079 | 12992 ft | 239 kts | 63° |
| 2026-04-15 12:56 | 9.87631 | 119.70590 | 12993 ft | 239 kts | 63° |
| 2026-04-15 12:56 | 9.88381 | 119.72079 | 12993 ft | 239 kts | 63° |
| 2026-04-15 12:56 | 9.89144 | 119.73591 | 12994 ft | 239 kts | 63° |
| 2026-04-15 12:57 | 9.89902 | 119.75089 | 12996 ft | 239 kts | 63° |
| 2026-04-15 12:57 | 9.90655 | 119.76585 | 12991 ft | 239 kts | 63° |
| 2026-04-15 12:57 | 9.91411 | 119.78081 | 12994 ft | 239 kts | 63° |
| 2026-04-15 12:57 | 9.92173 | 119.79589 | 12995 ft | 239 kts | 63° |
| 2026-04-15 12:58 | 9.92928 | 119.81084 | 12993 ft | 240 kts | 63° |
| 2026-04-15 12:58 | 9.93691 | 119.82595 | 12995 ft | 240 kts | 63° |
| 2026-04-15 12:58 | 9.94454 | 119.84109 | 12993 ft | 240 kts | 63° |
| 2026-04-15 12:58 | 9.95215 | 119.85614 | 12991 ft | 239 kts | 63° |
| 2026-04-15 12:59 | 9.96728 | 119.88615 | 12992 ft | 238 kts | 63° |
| 2026-04-15 12:59 | 9.97486 | 119.90121 | 12994 ft | 238 kts | 63° |
| 2026-04-15 12:59 | 9.98241 | 119.91618 | 12993 ft | 239 kts | 63° |
| 2026-04-15 13:00 | 9.99008 | 119.93138 | 12991 ft | 239 kts | 63° |
| 2026-04-15 13:00 | 9.99754 | 119.94621 | 12994 ft | 239 kts | 63° |
| 2026-04-15 13:00 | 10.00514 | 119.96127 | 12993 ft | 240 kts | 63° |
| 2026-04-15 13:00 | 10.01273 | 119.97635 | 12996 ft | 240 kts | 63° |
| 2026-04-15 13:01 | 10.02037 | 119.99150 | 12994 ft | 240 kts | 63° |
| 2026-04-15 13:01 | 10.02799 | 120.00663 | 12992 ft | 240 kts | 63° |
| 2026-04-15 13:01 | 10.03562 | 120.02176 | 12992 ft | 240 kts | 63° |
| 2026-04-15 13:01 | 10.04315 | 120.03672 | 12992 ft | 240 kts | 63° |
| 2026-04-15 13:02 | 10.05078 | 120.05185 | 12994 ft | 239 kts | 63° |
| 2026-04-15 13:02 | 10.05828 | 120.06677 | 12993 ft | 239 kts | 63° |
| 2026-04-15 13:02 | 10.06591 | 120.08190 | 12990 ft | 239 kts | 63° |
| 2026-04-15 13:02 | 10.07339 | 120.09679 | 12990 ft | 239 kts | 63° |
| 2026-04-15 13:03 | 10.08103 | 120.11197 | 12989 ft | 239 kts | 63° |
| 2026-04-15 13:03 | 10.08862 | 120.12704 | 12988 ft | 239 kts | 63° |
| 2026-04-15 13:03 | 10.09612 | 120.14195 | 12986 ft | 240 kts | 63° |
| 2026-04-15 13:03 | 10.10373 | 120.15706 | 12983 ft | 240 kts | 63° |
| 2026-04-15 13:04 | 10.11130 | 120.17212 | 12980 ft | 240 kts | 63° |
| 2026-04-15 13:04 | 10.11898 | 120.18741 | 12976 ft | 240 kts | 63° |
| 2026-04-15 13:04 | 10.12656 | 120.20245 | 12975 ft | 240 kts | 63° |
| 2026-04-15 13:04 | 10.13412 | 120.21748 | 12974 ft | 240 kts | 63° |
| 2026-04-15 13:05 | 10.14177 | 120.23270 | 12973 ft | 240 kts | 63° |
| 2026-04-15 13:05 | 10.14934 | 120.24776 | 12975 ft | 240 kts | 63° |
| 2026-04-15 13:05 | 10.15695 | 120.26291 | 12973 ft | 240 kts | 63° |
| 2026-04-15 13:05 | 10.16456 | 120.27806 | 12971 ft | 240 kts | 63° |
| 2026-04-15 13:06 | 10.17218 | 120.29324 | 12972 ft | 240 kts | 63° |
| 2026-04-15 13:06 | 10.17977 | 120.30833 | 12972 ft | 240 kts | 63° |
| 2026-04-15 13:06 | 10.18730 | 120.32332 | 12974 ft | 240 kts | 63° |
| 2026-04-15 13:06 | 10.19487 | 120.33839 | 12972 ft | 240 kts | 63° |
| 2026-04-15 13:07 | 10.20255 | 120.35368 | 12973 ft | 240 kts | 63° |
| 2026-04-15 13:07 | 10.21008 | 120.36866 | 12972 ft | 240 kts | 63° |
| 2026-04-15 13:07 | 10.21768 | 120.38380 | 12972 ft | 240 kts | 63° |
| 2026-04-15 13:07 | 10.22527 | 120.39891 | 12973 ft | 240 kts | 63° |
| 2026-04-15 13:08 | 10.23274 | 120.41389 | 12971 ft | 240 kts | 64° |
| 2026-04-15 13:08 | 10.23799 | 120.43007 | 12976 ft | 240 kts | 74° |
| 2026-04-15 13:08 | 10.24277 | 120.44631 | 12973 ft | 240 kts | 72° |
| 2026-04-15 13:08 | 10.24748 | 120.46256 | 12975 ft | 240 kts | 72° |
| 2026-04-15 13:09 | 10.25230 | 120.47897 | 12974 ft | 241 kts | 72° |
| 2026-04-15 13:09 | 10.25705 | 120.49522 | 12976 ft | 240 kts | 72° |
| 2026-04-15 13:09 | 10.26182 | 120.51145 | 12977 ft | 240 kts | 72° |
| 2026-04-15 13:09 | 10.26660 | 120.52776 | 12981 ft | 240 kts | 72° |
| 2026-04-15 13:10 | 10.27135 | 120.54398 | 12981 ft | 240 kts | 72° |
| 2026-04-15 13:10 | 10.27610 | 120.56016 | 12982 ft | 240 kts | 72° |
| 2026-04-15 13:10 | 10.28085 | 120.57641 | 12980 ft | 240 kts | 72° |
| 2026-04-15 13:10 | 10.28562 | 120.59270 | 12981 ft | 240 kts | 72° |
| 2026-04-15 13:11 | 10.29037 | 120.60895 | 12979 ft | 240 kts | 72° |
| 2026-04-15 13:11 | 10.29513 | 120.62512 | 12979 ft | 240 kts | 72° |
| 2026-04-15 13:11 | 10.29989 | 120.64146 | 12980 ft | 240 kts | 72° |
| 2026-04-15 13:11 | 10.30466 | 120.65771 | 12983 ft | 240 kts | 73° |
| 2026-04-15 13:12 | 10.30942 | 120.67403 | 12985 ft | 240 kts | 72° |
| 2026-04-15 13:12 | 10.31416 | 120.69023 | 12986 ft | 240 kts | 72° |
| 2026-04-15 13:12 | 10.31891 | 120.70644 | 12985 ft | 240 kts | 72° |
| 2026-04-15 13:12 | 10.32365 | 120.72266 | 12988 ft | 240 kts | 72° |
| 2026-04-15 13:13 | 10.32843 | 120.73904 | 12985 ft | 241 kts | 72° |
| 2026-04-15 13:13 | 10.33320 | 120.75532 | 12985 ft | 241 kts | 72° |
| 2026-04-15 13:13 | 10.33798 | 120.77166 | 12985 ft | 241 kts | 72° |
| 2026-04-15 13:13 | 10.34272 | 120.78791 | 12988 ft | 241 kts | 72° |
| 2026-04-15 13:14 | 10.34750 | 120.80422 | 12992 ft | 241 kts | 72° |
| 2026-04-15 13:14 | 10.35225 | 120.82054 | 12995 ft | 241 kts | 73° |
| 2026-04-15 13:14 | 10.35700 | 120.83680 | 12994 ft | 241 kts | 72° |
| 2026-04-15 13:14 | 10.36172 | 120.85300 | 12994 ft | 241 kts | 72° |
| 2026-04-15 13:15 | 10.36647 | 120.86923 | 12995 ft | 241 kts | 72° |
| 2026-04-15 13:15 | 10.37129 | 120.88572 | 12995 ft | 241 kts | 72° |
| 2026-04-15 13:15 | 10.37599 | 120.90189 | 12995 ft | 241 kts | 72° |
| 2026-04-15 13:15 | 10.38073 | 120.91814 | 12993 ft | 241 kts | 72° |
| 2026-04-15 13:16 | 10.38552 | 120.93461 | 12994 ft | 241 kts | 72° |
| 2026-04-15 13:16 | 10.39028 | 120.95087 | 12994 ft | 241 kts | 72° |
| 2026-04-15 13:16 | 10.39501 | 120.96711 | 12995 ft | 241 kts | 72° |
| 2026-04-15 13:16 | 10.39977 | 120.98338 | 12994 ft | 241 kts | 72° |
| 2026-04-15 13:17 | 10.40451 | 120.99966 | 12994 ft | 241 kts | 72° |
| 2026-04-15 13:17 | 10.40926 | 121.01597 | 12995 ft | 241 kts | 72° |
| 2026-04-15 13:17 | 10.41404 | 121.03240 | 12992 ft | 241 kts | 72° |
| 2026-04-15 13:17 | 10.41880 | 121.04873 | 12994 ft | 241 kts | 72° |
| 2026-04-15 13:18 | 10.42349 | 121.06486 | 12995 ft | 241 kts | 72° |
| 2026-04-15 13:18 | 10.42827 | 121.08129 | 12994 ft | 241 kts | 73° |
| 2026-04-15 13:18 | 10.43299 | 121.09750 | 12994 ft | 241 kts | 72° |
| 2026-04-15 13:18 | 10.43774 | 121.11384 | 12992 ft | 241 kts | 72° |
| 2026-04-15 13:19 | 10.44253 | 121.13027 | 12993 ft | 241 kts | 72° |
| 2026-04-15 13:19 | 10.44726 | 121.14654 | 12994 ft | 241 kts | 72° |
| 2026-04-15 13:19 | 10.45205 | 121.16305 | 12992 ft | 241 kts | 72° |
| 2026-04-15 13:19 | 10.45684 | 121.17950 | 12988 ft | 241 kts | 72° |
| 2026-04-15 13:20 | 10.46153 | 121.19565 | 12987 ft | 241 kts | 72° |
| 2026-04-15 13:20 | 10.46631 | 121.21204 | 12984 ft | 241 kts | 72° |
| 2026-04-15 13:20 | 10.47104 | 121.22833 | 12981 ft | 241 kts | 72° |
| 2026-04-15 13:20 | 10.47579 | 121.24468 | 12977 ft | 241 kts | 72° |
| 2026-04-15 13:21 | 10.48058 | 121.26115 | 12976 ft | 242 kts | 72° |
| 2026-04-15 13:21 | 10.48536 | 121.27763 | 12974 ft | 242 kts | 72° |
| 2026-04-15 13:21 | 10.49005 | 121.29384 | 12973 ft | 242 kts | 72° |
| 2026-04-15 13:21 | 10.49472 | 121.30994 | 12982 ft | 226 kts | 72° |
| 2026-04-15 13:22 | 10.49912 | 121.32503 | 12722 ft | 218 kts | 72° |
| 2026-04-15 13:22 | 10.50334 | 121.33951 | 12427 ft | 213 kts | 72° |
| 2026-04-15 13:22 | 10.50748 | 121.35379 | 12144 ft | 209 kts | 72° |
| 2026-04-15 13:22 | 10.51156 | 121.36786 | 11867 ft | 205 kts | 72° |
| 2026-04-15 13:23 | 10.51553 | 121.38154 | 11600 ft | 202 kts | 72° |
| 2026-04-15 13:23 | 10.51946 | 121.39509 | 11309 ft | 201 kts | 72° |
| 2026-04-15 13:23 | 10.52343 | 121.40868 | 11022 ft | 200 kts | 72° |
| 2026-04-15 13:23 | 10.52739 | 121.42229 | 10742 ft | 198 kts | 72° |
| 2026-04-15 13:24 | 10.53127 | 121.43561 | 10473 ft | 197 kts | 73° |
| 2026-04-15 13:24 | 10.53513 | 121.44887 | 10206 ft | 195 kts | 73° |
| 2026-04-15 13:24 | 10.53896 | 121.46207 | 9945 ft | 194 kts | 73° |
| 2026-04-15 13:24 | 10.54274 | 121.47505 | 9692 ft | 192 kts | 73° |
| 2026-04-15 13:25 | 10.54652 | 121.48811 | 9437 ft | 191 kts | 73° |
| 2026-04-15 13:25 | 10.55030 | 121.50111 | 9185 ft | 190 kts | 73° |
| 2026-04-15 13:25 | 10.55401 | 121.51389 | 8935 ft | 189 kts | 73° |
| 2026-04-15 13:25 | 10.55769 | 121.52657 | 8687 ft | 188 kts | 73° |
| 2026-04-15 13:26 | 10.56140 | 121.53934 | 8435 ft | 187 kts | 73° |
| 2026-04-15 13:26 | 10.56510 | 121.55207 | 8187 ft | 186 kts | 73° |
| 2026-04-15 13:26 | 10.56875 | 121.56464 | 7939 ft | 185 kts | 73° |
| 2026-04-15 13:26 | 10.57240 | 121.57719 | 7694 ft | 184 kts | 73° |
| 2026-04-15 13:27 | 10.57598 | 121.58954 | 7452 ft | 184 kts | 73° |
| 2026-04-15 13:27 | 10.57962 | 121.60205 | 7207 ft | 183 kts | 73° |
| 2026-04-15 13:27 | 10.58321 | 121.61444 | 6964 ft | 182 kts | 73° |
| 2026-04-15 13:27 | 10.58677 | 121.62669 | 6725 ft | 181 kts | 73° |
| 2026-04-15 13:28 | 10.59032 | 121.63897 | 6485 ft | 180 kts | 72° |
| 2026-04-15 13:28 | 10.59387 | 121.65114 | 6246 ft | 179 kts | 73° |
| 2026-04-15 13:28 | 10.59738 | 121.66325 | 6014 ft | 179 kts | 73° |
| 2026-04-15 13:28 | 10.60087 | 121.67526 | 5778 ft | 174 kts | 73° |
| 2026-04-15 13:29 | 10.60421 | 121.68681 | 5552 ft | 169 kts | 72° |
| 2026-04-15 13:29 | 10.60750 | 121.69816 | 5334 ft | 165 kts | 72° |
| 2026-04-15 13:29 | 10.61071 | 121.70917 | 5120 ft | 161 kts | 72° |
| 2026-04-15 13:29 | 10.61385 | 121.72002 | 4910 ft | 157 kts | 72° |
| 2026-04-15 13:30 | 10.61689 | 121.73046 | 4712 ft | 154 kts | 72° |
| 2026-04-15 13:30 | 10.61992 | 121.74094 | 4514 ft | 152 kts | 72° |
| 2026-04-15 13:30 | 10.62288 | 121.75118 | 4320 ft | 150 kts | 72° |
| 2026-04-15 13:30 | 10.62580 | 121.76125 | 4126 ft | 148 kts | 72° |
| 2026-04-15 13:31 | 10.62870 | 121.77125 | 3933 ft | 147 kts | 72° |
| 2026-04-15 13:31 | 10.63159 | 121.78120 | 3743 ft | 145 kts | 72° |
| 2026-04-15 13:31 | 10.63444 | 121.79103 | 3553 ft | 144 kts | 72° |
| 2026-04-15 13:31 | 10.63725 | 121.80072 | 3367 ft | 143 kts | 72° |
| 2026-04-15 13:32 | 10.64005 | 121.81039 | 3183 ft | 142 kts | 72° |
| 2026-04-15 13:32 | 10.64285 | 121.82006 | 2997 ft | 141 kts | 72° |
| 2026-04-15 13:32 | 10.64562 | 121.82962 | 2811 ft | 140 kts | 72° |
| 2026-04-15 13:32 | 10.64836 | 121.83905 | 2626 ft | 140 kts | 73° |
| 2026-04-15 13:33 | 10.65108 | 121.84853 | 2440 ft | 139 kts | 72° |
| 2026-04-15 13:33 | 10.65382 | 121.85792 | 2258 ft | 139 kts | 72° |
| 2026-04-15 13:33 | 10.65656 | 121.86742 | 2074 ft | 138 kts | 73° |
| 2026-04-15 13:33 | 10.65927 | 121.87678 | 1894 ft | 138 kts | 73° |
| 2026-04-15 13:34 | 10.66201 | 121.88625 | 1710 ft | 138 kts | 73° |
| 2026-04-15 13:34 | 10.66469 | 121.89549 | 1533 ft | 137 kts | 73° |
| 2026-04-15 13:34 | 10.66740 | 121.90483 | 1350 ft | 138 kts | 73° |
| 2026-04-15 13:34 | 10.67010 | 121.91419 | 1168 ft | 138 kts | 73° |
| 2026-04-15 13:35 | 10.67287 | 121.92350 | 1023 ft | 134 kts | 69° |
| 2026-04-15 13:35 | 10.67893 | 121.92982 | 1028 ft | 121 kts | 24° |
| 2026-04-15 13:35 | 10.68706 | 121.93105 | 946 ft | 114 kts | 10° |
| 2026-04-15 13:35 | 10.69455 | 121.93156 | 789 ft | 106 kts | 9° |
| 2026-04-15 13:36 | 10.70191 | 121.93185 | 684 ft | 102 kts | 6° |
| 2026-04-15 13:36 | 10.70904 | 121.93202 | 545 ft | 102 kts | 6° |
| 2026-04-15 13:36 | 10.71599 | 121.93210 | 498 ft | 98 kts | 6° |
| 2026-04-15 13:36 | 10.72330 | 121.93224 | 514 ft | 108 kts | 6° |
| 2026-04-15 13:37 | 10.73095 | 121.93229 | 452 ft | 110 kts | 5° |
| 2026-04-15 13:37 | 10.73845 | 121.93233 | 370 ft | 104 kts | 5° |
| 2026-04-15 13:37 | 10.74554 | 121.93226 | 267 ft | 100 kts | 6° |
| 2026-04-15 13:37 | 10.75250 | 121.93237 | 212 ft | 102 kts | 4° |
| 2026-04-15 13:38 | 10.75996 | 121.93240 | 85 ft | 109 kts | 3° |
| 2026-04-15 13:38 | 10.76683 | 121.93250 | 33 ft | 75 kts | 358° |
| 2026-04-15 13:38 | 10.77010 | 121.93243 | 27 ft | 16 kts | 14° |
| 2026-04-15 13:38 | 10.77035 | 121.93251 | 27 ft | 1 kts | 22° |
| 2026-04-15 13:39 | 10.77004 | 121.93248 | 27 ft | 13 kts | 175° |
| 2026-04-15 13:39 | 10.76907 | 121.93249 | 28 ft | 12 kts | 174° |
| 2026-04-15 13:39 | 10.76861 | 121.93272 | 30 ft | 7 kts | 134° |
| 2026-04-15 13:39 | 10.76817 | 121.93305 | 31 ft | 7 kts | 168° |
| 2026-04-15 13:40 | 10.76775 | 121.93314 | 32 ft | 6 kts | 152° |
| 2026-04-15 13:40 | 10.76761 | 121.93341 | 33 ft | 0 kts | 95° |